Terminal Aerodrome Forecast
Issued by NWS Atlanta, GA

Home | Current Version | Previous Version | Text Only | Print | Product List | Glossary On
Versions: 1 2 3 4 5 6 7 8 9 10 11 12 13 14 15 16 17 18 19 20 21 22 23 24 25 26 27 28 29 30 31 32 33 34 35 36 37 38 39 40 41 42
724
FTUS42 KFFC 241745
TAFATL
TAF
KATL 241745Z 2418/2524 08008KT P6SM -SHRA SCT030 BKN040
      TEMPO 2420/2424 4SM -TSRA BKN025CB
     FM250200 09007KT P6SM OVC120
     FM250500 09005KT P6SM OVC015
     FM250800 08007KT P6SM OVC008
     FM251600 10008KT P6SM VCSH OVC012
     FM251800 10008KT P6SM SHRA OVC020=

USA.gov is the U.S. government's official web portal to all federal, state and local government web resources and services.